createdAt,value
2023-01-23T00:01:29.820Z,17.00
2023-01-23T00:03:57.487Z,15.37
2023-01-23T00:06:24.787Z,16.10
2023-01-23T00:08:51.414Z,14.23
2023-01-23T00:11:20.970Z,15.07
2023-01-23T00:13:47.653Z,15.33
2023-01-23T00:16:17.256Z,15.37
2023-01-23T00:18:44.564Z,16.90
2023-01-23T00:21:13.528Z,16.07
2023-01-23T00:23:43.966Z,16.23
2023-01-23T00:26:15.508Z,16.17
2023-01-23T00:28:43.353Z,14.73
2023-01-23T00:31:14.113Z,16.50
2023-01-23T00:33:41.021Z,16.80
2023-01-23T00:36:08.275Z,15.30
2023-01-23T00:38:35.550Z,16.23
2023-01-23T00:41:03.124Z,14.30
2023-01-23T00:43:30.401Z,15.03
2023-01-23T00:45:57.226Z,15.03
2023-01-23T00:48:24.400Z,17.30
2023-01-23T00:50:51.143Z,17.27
2023-01-23T00:53:17.924Z,17.17
2023-01-23T00:55:44.527Z,16.37
2023-01-23T00:58:11.429Z,17.13
2023-01-23T01:00:38.845Z,17.90
2023-01-23T01:03:06.461Z,17.63
2023-01-23T01:05:33.579Z,16.40
2023-01-23T01:08:00.169Z,17.53
2023-01-23T01:10:29.357Z,14.77
2023-01-23T01:12:57.276Z,17.93
2023-01-23T01:15:23.921Z,18.70
2023-01-23T01:17:50.566Z,16.87
2023-01-23T01:20:17.455Z,16.63
2023-01-23T01:22:44.262Z,17.03
2023-01-23T01:25:10.972Z,17.57
2023-01-23T01:27:37.600Z,17.47
2023-01-23T01:30:04.617Z,17.63
2023-01-23T01:32:31.282Z,15.67
2023-01-23T01:34:57.857Z,16.60
2023-01-23T01:37:25.559Z,15.47
2023-01-23T01:39:52.137Z,17.57
2023-01-23T01:42:18.759Z,17.77
2023-01-23T01:45:33.184Z,17.00
2023-01-23T01:47:59.752Z,16.13
2023-01-23T01:50:26.319Z,18.70
2023-01-23T01:52:52.881Z,18.40
2023-01-23T01:55:19.502Z,16.90
2023-01-23T01:57:48.802Z,18.57
2023-01-23T02:00:19.202Z,17.83
2023-01-23T02:02:53.481Z,18.13
2023-01-23T02:05:29.838Z,19.53
2023-01-23T02:08:08.102Z,19.10
2023-01-23T02:10:36.195Z,18.73
2023-01-23T02:13:36.185Z,18.97
2023-01-23T02:16:06.956Z,19.20
2023-01-23T02:18:35.834Z,17.07
2023-01-23T02:21:06.462Z,17.00
2023-01-23T02:23:52.154Z,17.93
2023-01-23T02:26:25.452Z,19.67
2023-01-23T02:28:53.502Z,17.60
2023-01-23T02:31:21.337Z,19.27
2023-01-23T02:33:53.133Z,16.83
2023-01-23T02:36:22.402Z,18.83
2023-01-23T02:39:08.320Z,16.73
2023-01-23T02:41:41.962Z,19.93
2023-01-23T02:44:25.088Z,18.27
2023-01-23T02:46:52.169Z,18.07
2023-01-23T02:49:18.837Z,16.60
2023-01-23T02:51:45.559Z,19.33
2023-01-23T02:54:12.106Z,16.30
2023-01-23T02:56:38.767Z,16.40
2023-01-23T02:59:24.250Z,18.00
2023-01-23T03:01:51.408Z,17.30
2023-01-23T03:04:18.099Z,17.83
2023-01-23T03:06:44.714Z,17.37
2023-01-23T03:09:14.023Z,17.27
2023-01-23T03:11:42.926Z,17.47
2023-01-23T03:14:16.199Z,17.63
2023-01-23T03:16:43.019Z,16.83
2023-01-23T03:19:10.386Z,18.87
2023-01-23T03:21:40.382Z,16.87
2023-01-23T03:24:12.639Z,17.17
2023-01-23T03:26:41.291Z,18.23
2023-01-23T03:29:31.322Z,17.03
2023-01-23T03:31:57.945Z,17.17
2023-01-23T03:34:24.584Z,17.83
2023-01-23T03:36:51.203Z,17.17
2023-01-23T03:39:36.515Z,19.37
2023-01-23T03:42:03.155Z,17.73
2023-01-23T03:44:29.750Z,17.20
2023-01-23T03:46:56.304Z,18.03
2023-01-23T03:49:22.856Z,18.20
2023-01-23T03:51:49.413Z,18.60
2023-01-23T03:54:16.055Z,19.03
2023-01-23T03:56:43.445Z,15.40
2023-01-23T03:59:10.357Z,17.47
2023-01-23T04:01:38.105Z,17.73
2023-01-23T04:04:04.787Z,18.17
2023-01-23T04:06:31.748Z,17.47
2023-01-23T04:08:58.380Z,18.40
2023-01-23T04:11:26.396Z,18.33
2023-01-23T04:13:53.934Z,16.77
2023-01-23T04:16:22.734Z,16.50
2023-01-23T04:18:50.261Z,19.47
2023-01-23T04:21:17.337Z,18.23
2023-01-23T04:23:44.106Z,18.77
2023-01-23T04:26:10.708Z,19.87
2023-01-23T04:28:37.306Z,18.70
2023-01-23T04:31:04.371Z,19.23
2023-01-23T04:33:31.192Z,18.17
2023-01-23T04:36:01.187Z,17.73
2023-01-23T04:38:29.193Z,20.17
2023-01-23T04:40:56.037Z,19.43
2023-01-23T04:43:22.841Z,17.73
2023-01-23T04:45:56.719Z,19.27
2023-01-23T04:48:24.573Z,18.33
2023-01-23T04:50:51.649Z,19.67
2023-01-23T04:53:18.712Z,20.50
2023-01-23T04:55:48.616Z,19.23
2023-01-23T04:58:15.977Z,19.20
2023-01-23T05:00:42.605Z,20.10
2023-01-23T05:03:09.157Z,19.47
2023-01-23T05:05:35.754Z,16.77
2023-01-23T05:08:02.389Z,19.53
2023-01-23T05:10:28.959Z,19.43
2023-01-23T05:12:55.663Z,20.17
2023-01-23T05:15:22.261Z,18.70
2023-01-23T05:17:49.383Z,19.13
2023-01-23T05:20:16.076Z,18.40
2023-01-23T05:22:56.065Z,17.17
2023-01-23T05:25:26.343Z,22.20
2023-01-23T05:27:52.969Z,17.57
2023-01-23T05:30:22.640Z,19.57
2023-01-23T05:32:49.604Z,18.50
2023-01-23T05:35:16.602Z,19.57
2023-01-23T05:37:43.305Z,18.73
2023-01-23T05:40:13.098Z,21.83
2023-01-23T05:42:39.746Z,21.27
2023-01-23T05:45:07.329Z,21.77
2023-01-23T05:47:34.008Z,20.80
2023-01-23T05:50:01.034Z,19.87
2023-01-23T05:52:28.170Z,22.27
2023-01-23T05:54:54.747Z,18.97
2023-01-23T05:57:21.691Z,21.63
2023-01-23T05:59:48.288Z,21.13
2023-01-23T06:02:15.171Z,19.10
2023-01-23T06:04:42.015Z,21.07
2023-01-23T06:07:14.668Z,19.90
2023-01-23T06:09:41.704Z,19.53
2023-01-23T06:12:09.802Z,19.17
2023-01-23T06:14:36.465Z,18.30
2023-01-23T06:17:03.263Z,19.87
2023-01-23T06:19:29.881Z,19.00
2023-01-23T06:21:56.552Z,20.80
2023-01-23T06:24:23.161Z,21.83
2023-01-23T06:26:50.440Z,22.20
2023-01-23T06:29:17.196Z,22.97
2023-01-23T06:31:43.915Z,17.77
2023-01-23T06:34:10.756Z,18.87
2023-01-23T06:36:37.409Z,19.87
2023-01-23T06:39:04.017Z,20.50
2023-01-23T06:41:30.644Z,19.70
2023-01-23T06:43:57.567Z,18.57
2023-01-23T06:46:24.462Z,17.87
2023-01-23T06:48:52.628Z,18.73
2023-01-23T06:51:19.285Z,22.50
2023-01-23T06:53:45.848Z,20.43
2023-01-23T06:56:12.615Z,18.67
2023-01-23T06:58:39.178Z,20.20
2023-01-23T07:01:15.773Z,20.47
2023-01-23T07:03:44.791Z,19.33
2023-01-23T07:06:13.085Z,20.90
2023-01-23T07:08:40.159Z,21.47
2023-01-23T07:11:07.482Z,19.47
2023-01-23T07:13:34.449Z,21.60
2023-01-23T07:16:01.781Z,21.03
2023-01-23T07:18:30.219Z,24.30
2023-01-23T07:20:56.888Z,26.07
2023-01-23T07:23:23.675Z,25.13
2023-01-23T07:25:50.329Z,28.70
2023-01-23T07:28:17.064Z,26.27
2023-01-23T07:30:43.756Z,22.67
2023-01-23T07:33:11.776Z,28.90
2023-01-23T07:35:40.049Z,25.13
2023-01-23T07:38:06.743Z,21.70
2023-01-23T07:40:33.389Z,23.27
2023-01-23T07:42:59.953Z,22.37
2023-01-23T07:45:26.523Z,21.97
2023-01-23T07:47:53.090Z,22.93
2023-01-23T07:50:19.905Z,21.20
2023-01-23T07:52:46.600Z,21.53
2023-01-23T07:55:13.397Z,21.40
2023-01-23T07:57:39.945Z,22.07
2023-01-23T08:00:07.612Z,20.40
2023-01-23T08:02:34.209Z,21.93
2023-01-23T08:05:00.763Z,23.13
2023-01-23T08:07:27.347Z,20.47
2023-01-23T08:09:53.979Z,21.50
2023-01-23T08:12:20.646Z,23.37
2023-01-23T08:14:47.637Z,22.77
2023-01-23T08:17:14.583Z,20.97
2023-01-23T08:19:41.254Z,20.23
2023-01-23T08:22:07.792Z,22.77
2023-01-23T08:24:34.390Z,21.97
2023-01-23T08:27:00.954Z,21.07
2023-01-23T08:29:27.746Z,18.73
2023-01-23T08:31:55.085Z,19.97
2023-01-23T08:34:23.978Z,19.33
2023-01-23T08:36:50.888Z,22.73
2023-01-23T08:39:18.525Z,19.07
2023-01-23T08:41:45.111Z,22.07
2023-01-23T08:44:12.039Z,21.87
2023-01-23T08:46:39.234Z,24.77
2023-01-23T08:49:05.834Z,23.43
2023-01-23T08:51:33.193Z,25.73
2023-01-23T08:53:59.917Z,22.20
2023-01-23T08:56:26.631Z,19.30
2023-01-23T08:58:53.240Z,23.03
2023-01-23T09:01:22.769Z,22.73
2023-01-23T09:03:49.568Z,21.27
2023-01-23T09:06:19.289Z,20.93
2023-01-23T09:08:46.602Z,20.13
2023-01-23T09:11:14.409Z,22.33
2023-01-23T09:13:41.181Z,19.93
2023-01-23T09:16:08.490Z,19.67
2023-01-23T09:18:35.802Z,18.30
2023-01-23T09:21:08.846Z,19.73
2023-01-23T09:23:35.767Z,23.67
2023-01-23T09:26:04.396Z,28.90
2023-01-23T09:28:31.184Z,34.10
2023-01-23T09:31:01.816Z,30.40
2023-01-23T09:33:28.492Z,32.60
2023-01-23T09:35:55.036Z,28.80
2023-01-23T09:38:21.680Z,27.67
2023-01-23T09:40:53.898Z,19.97
2023-01-23T09:43:32.370Z,22.53
2023-01-23T09:46:17.898Z,21.20
2023-01-23T09:48:46.931Z,20.37
2023-01-23T09:51:22.487Z,21.07
2023-01-23T09:53:49.253Z,19.27
2023-01-23T09:56:36.062Z,21.37
2023-01-23T09:59:18.721Z,19.87
2023-01-23T10:01:45.484Z,21.80
2023-01-23T10:04:14.601Z,18.73
2023-01-23T10:07:16.235Z,18.07
2023-01-23T10:10:14.275Z,21.20
2023-01-23T10:13:07.808Z,20.70
2023-01-23T10:16:01.959Z,20.70
2023-01-23T10:18:39.445Z,19.30
2023-01-23T10:21:26.844Z,22.50
2023-01-23T10:24:02.318Z,20.87
2023-01-23T10:26:40.840Z,20.97
2023-01-23T10:29:34.575Z,18.60
2023-01-23T10:32:03.739Z,17.47
2023-01-23T10:34:57.617Z,18.83
2023-01-23T10:37:53.976Z,21.97
2023-01-23T10:40:42.062Z,21.23
2023-01-23T10:43:20.141Z,21.30
2023-01-23T10:45:48.357Z,20.30
2023-01-23T10:48:49.422Z,21.13
2023-01-23T10:51:46.697Z,17.47
2023-01-23T10:54:33.866Z,18.87
2023-01-23T10:57:25.340Z,17.60
2023-01-23T11:00:04.284Z,17.27
2023-01-23T11:02:34.904Z,17.87
2023-01-23T11:05:03.941Z,17.97
2023-01-23T11:07:37.913Z,22.47
2023-01-23T11:10:07.532Z,19.47
2023-01-23T11:12:45.844Z,19.80
2023-01-23T11:15:28.253Z,19.83
2023-01-23T11:17:57.540Z,19.53
2023-01-23T11:20:40.808Z,18.30
2023-01-23T11:23:13.066Z,17.67
2023-01-23T11:25:42.360Z,18.20
2023-01-23T11:28:35.424Z,19.10
2023-01-23T11:31:21.457Z,20.57
2023-01-23T11:33:58.768Z,22.53
2023-01-23T11:36:32.089Z,22.27
2023-01-23T11:39:16.625Z,20.73
2023-01-23T11:41:45.069Z,20.10
2023-01-23T11:44:23.176Z,19.43
2023-01-23T11:47:01.533Z,21.50
2023-01-23T11:50:00.050Z,19.87
2023-01-23T11:52:43.290Z,23.80
2023-01-23T11:55:46.263Z,22.57
2023-01-23T11:58:49.888Z,20.00
2023-01-23T12:01:27.239Z,19.23
2023-01-23T12:04:14.797Z,19.17
2023-01-23T12:06:47.619Z,17.13
2023-01-23T12:09:20.199Z,16.77
2023-01-23T12:12:42.939Z,14.83
2023-01-23T12:15:34.945Z,20.33
2023-01-23T12:18:38.458Z,18.33
2023-01-23T12:21:19.945Z,16.83
2023-01-23T12:24:17.157Z,16.30
2023-01-23T12:27:12.416Z,16.33
2023-01-23T12:30:15.470Z,14.43
2023-01-23T12:33:09.105Z,16.37
2023-01-23T12:35:54.942Z,17.90
2023-01-23T12:38:47.583Z,15.33
2023-01-23T12:41:40.359Z,15.73
2023-01-23T12:44:30.458Z,16.13
2023-01-23T12:47:14.195Z,14.37
2023-01-23T12:49:54.371Z,14.67
2023-01-23T12:52:26.223Z,14.50
2023-01-23T12:55:18.572Z,14.60
2023-01-23T12:57:59.549Z,16.20
2023-01-23T13:00:58.709Z,15.87
2023-01-23T13:03:37.205Z,15.43
2023-01-23T13:06:39.254Z,13.00
2023-01-23T13:09:18.898Z,14.83
2023-01-23T13:11:58.716Z,14.57
2023-01-23T13:15:03.587Z,13.07
2023-01-23T13:17:32.069Z,14.23
2023-01-23T13:20:47.090Z,14.90
2023-01-23T13:23:32.495Z,16.20
2023-01-23T13:26:25.121Z,13.87
2023-01-23T13:29:01.406Z,14.30
2023-01-23T13:31:40.647Z,15.07
2023-01-23T13:34:16.320Z,24.90
2023-01-23T13:36:50.504Z,14.07
2023-01-23T13:39:17.157Z,13.90
2023-01-23T13:41:45.587Z,13.93
2023-01-23T13:44:27.063Z,13.93
2023-01-23T14:22:29.641Z,14.37
2023-01-23T14:24:57.028Z,11.30
2023-01-23T14:27:44.387Z,12.83
2023-01-23T14:30:20.284Z,12.90
2023-01-23T14:32:47.100Z,15.43
2023-01-23T14:35:25.016Z,12.90
2023-01-23T14:37:53.844Z,13.17
2023-01-23T14:40:27.570Z,12.80
2023-01-23T14:43:01.304Z,11.93
2023-01-23T14:45:33.522Z,13.80
2023-01-23T14:48:08.204Z,12.40
2023-01-23T14:50:35.370Z,11.10
2023-01-23T14:53:11.691Z,11.77
2023-01-23T14:55:41.355Z,13.13
2023-01-23T14:58:20.827Z,13.17
2023-01-23T15:00:49.118Z,13.97
2023-01-23T15:03:38.191Z,12.90
2023-01-23T15:06:19.154Z,13.30
2023-01-23T15:08:46.734Z,13.93
2023-01-23T15:11:13.497Z,12.50
2023-01-23T15:13:47.194Z,14.47
2023-01-23T15:16:25.962Z,13.17
2023-01-23T15:18:57.321Z,13.10
2023-01-23T15:21:28.635Z,12.17
2023-01-23T15:24:08.862Z,11.83
2023-01-23T15:26:37.311Z,11.57
2023-01-23T15:29:19.338Z,14.87
2023-01-23T15:31:51.728Z,12.77
2023-01-23T15:34:24.026Z,11.67
2023-01-23T15:37:01.162Z,16.77
2023-01-23T15:39:36.875Z,13.80
2023-01-23T15:42:12.792Z,13.27
2023-01-23T15:44:40.106Z,15.13
2023-01-23T15:47:07.100Z,14.87
2023-01-23T15:49:36.011Z,14.70
2023-01-23T15:52:24.232Z,12.63
2023-01-23T15:54:55.000Z,11.10
2023-01-23T15:57:21.590Z,14.30
2023-01-23T15:59:48.247Z,11.90
2023-01-23T16:02:30.010Z,14.73
2023-01-23T16:04:57.399Z,13.77
2023-01-23T16:07:39.302Z,13.10
2023-01-23T16:10:15.737Z,15.33
2023-01-23T16:12:42.561Z,16.40
2023-01-23T16:15:35.707Z,13.37
2023-01-23T16:18:04.482Z,15.37
2023-01-23T16:20:39.428Z,11.80
2023-01-23T16:23:18.105Z,13.83
2023-01-23T16:25:46.117Z,12.53
2023-01-23T16:28:15.317Z,12.70
2023-01-23T16:30:42.279Z,12.40
2023-01-23T16:33:09.334Z,13.07
2023-01-23T16:35:36.162Z,12.27
2023-01-23T16:38:03.016Z,14.50
2023-01-23T16:40:31.173Z,16.03
2023-01-23T16:42:58.343Z,14.50
2023-01-23T16:45:27.804Z,13.50
2023-01-23T16:47:54.972Z,13.90
2023-01-23T16:50:27.945Z,13.90
2023-01-23T16:53:01.126Z,13.97
2023-01-23T16:55:33.911Z,15.57
2023-01-23T16:58:01.251Z,11.43
2023-01-23T17:00:34.762Z,13.77
2023-01-23T17:03:07.280Z,15.30
2023-01-23T17:05:34.072Z,16.67
2023-01-23T17:08:00.635Z,13.17
2023-01-23T17:10:41.250Z,15.73
2023-01-23T17:13:12.903Z,14.43
2023-01-23T17:15:39.867Z,13.43
2023-01-23T17:18:06.824Z,14.00
2023-01-23T17:20:33.359Z,15.20
2023-01-23T17:22:59.966Z,14.00
2023-01-23T17:25:27.094Z,15.47
2023-01-23T17:28:11.568Z,12.67
2023-01-23T17:30:39.923Z,13.17
2023-01-23T17:33:12.927Z,15.17
2023-01-23T17:35:39.525Z,16.87
2023-01-23T17:38:06.852Z,14.57
2023-01-23T17:40:33.921Z,13.33
2023-01-23T17:43:00.793Z,14.80
2023-01-23T17:45:28.175Z,11.37
2023-01-23T17:47:55.596Z,14.77
2023-01-23T17:50:26.286Z,12.63
2023-01-23T17:52:54.213Z,12.10
2023-01-23T17:55:24.143Z,12.80
2023-01-23T17:57:51.369Z,16.50
2023-01-23T18:00:19.865Z,16.57
2023-01-23T18:02:52.036Z,11.70
2023-01-23T18:05:18.778Z,16.17
2023-01-23T18:07:53.809Z,16.13
2023-01-23T18:10:22.006Z,14.33
2023-01-23T18:13:04.092Z,14.17
2023-01-23T18:15:55.777Z,13.60
2023-01-23T18:18:37.480Z,18.17
2023-01-23T18:21:05.417Z,13.13
2023-01-23T18:23:32.861Z,12.93
2023-01-23T18:26:14.458Z,16.00
2023-01-23T18:29:10.090Z,15.30
2023-01-23T18:32:06.643Z,13.30
2023-01-23T18:34:58.923Z,15.63
2023-01-23T18:38:02.913Z,16.73
2023-01-23T18:40:40.581Z,15.27
2023-01-23T18:43:34.678Z,16.03
2023-01-23T18:46:01.644Z,13.20
2023-01-23T18:48:28.669Z,14.30
2023-01-23T18:51:09.870Z,12.37
2023-01-23T18:53:58.648Z,14.13
2023-01-23T18:56:42.224Z,13.33
2023-01-23T18:59:45.131Z,15.50
2023-01-23T19:02:43.307Z,13.67
2023-01-23T19:05:19.026Z,13.00
2023-01-23T19:07:46.569Z,13.47
2023-01-23T19:10:18.658Z,13.23
2023-01-23T19:13:13.330Z,15.67
2023-01-23T19:16:11.356Z,14.40
2023-01-23T19:18:48.638Z,14.77
2023-01-23T19:21:23.421Z,15.93
2023-01-23T19:23:59.843Z,14.43
2023-01-23T19:26:34.812Z,14.70
2023-01-23T19:29:19.191Z,13.77
2023-01-23T19:32:02.958Z,14.27
2023-01-23T19:34:30.536Z,14.70
2023-01-23T19:36:57.137Z,14.87
2023-01-23T19:39:23.754Z,15.43
2023-01-23T19:41:50.707Z,10.97
2023-01-23T19:44:20.159Z,11.73
2023-01-23T19:46:47.472Z,12.80
2023-01-23T19:49:14.114Z,14.97
2023-01-23T19:51:41.229Z,12.93
2023-01-23T19:54:10.762Z,12.93
2023-01-23T19:56:38.844Z,13.50
2023-01-23T19:59:06.439Z,12.27
2023-01-23T20:01:40.278Z,13.37
2023-01-23T20:04:08.742Z,13.43
2023-01-23T20:06:38.724Z,14.93
2023-01-23T20:09:05.441Z,13.20
2023-01-23T20:11:32.000Z,11.83
2023-01-23T20:13:58.577Z,14.50
2023-01-23T20:16:26.261Z,13.50
2023-01-23T20:18:53.856Z,12.20
2023-01-23T20:21:22.737Z,12.30
2023-01-23T20:23:50.468Z,13.10
2023-01-23T20:26:18.925Z,14.10
2023-01-23T20:28:50.179Z,13.23
2023-01-23T20:31:16.992Z,13.57
2023-01-23T20:33:43.660Z,13.13
2023-01-23T20:36:11.099Z,14.17
2023-01-23T20:38:38.787Z,15.57
2023-01-23T20:41:08.493Z,14.20
2023-01-23T20:43:35.481Z,16.33
2023-01-23T20:46:07.233Z,13.87
2023-01-23T20:48:35.455Z,15.30
2023-01-23T20:51:02.720Z,13.93
2023-01-23T20:53:32.218Z,13.97
2023-01-23T20:56:11.476Z,12.67
2023-01-23T20:58:59.243Z,12.63
2023-01-23T21:01:51.841Z,15.77
2023-01-23T21:04:18.867Z,13.77
2023-01-23T21:06:45.693Z,15.53
2023-01-23T21:09:12.311Z,11.63
2023-01-23T21:11:39.110Z,11.37
2023-01-23T21:14:05.871Z,13.53
2023-01-23T21:16:32.784Z,14.87
2023-01-23T21:19:00.859Z,14.73
2023-01-23T21:21:27.860Z,13.63
2023-01-23T21:23:54.559Z,13.10
2023-01-23T21:26:23.533Z,13.63
2023-01-23T21:28:51.734Z,14.27
2023-01-23T21:31:20.353Z,12.90
2023-01-23T21:33:47.091Z,14.90
2023-01-23T21:36:16.171Z,12.00
2023-01-23T21:38:43.368Z,13.43
2023-01-23T21:41:10.018Z,14.10
2023-01-23T21:43:36.629Z,11.70
2023-01-23T21:46:03.354Z,12.77
2023-01-23T21:48:31.363Z,13.43
2023-01-23T21:51:16.332Z,13.27
2023-01-23T21:53:45.572Z,14.27
2023-01-23T21:56:14.175Z,13.07
2023-01-23T21:58:42.356Z,13.07
2023-01-23T22:01:32.402Z,12.47
2023-01-23T22:04:04.641Z,12.80
2023-01-23T22:06:32.316Z,15.53
2023-01-23T22:08:59.251Z,12.10
2023-01-23T22:11:26.195Z,13.30
2023-01-23T22:13:53.064Z,14.03
2023-01-23T22:16:22.787Z,14.33
2023-01-23T22:18:52.288Z,13.13
2023-01-23T22:21:19.078Z,13.07
2023-01-23T22:23:45.746Z,13.53
2023-01-23T22:26:12.551Z,11.77
2023-01-23T22:28:39.105Z,13.93
2023-01-23T22:31:10.037Z,13.77
2023-01-23T22:33:40.825Z,14.60
2023-01-23T22:36:09.572Z,12.27
2023-01-23T22:38:36.169Z,14.87
2023-01-23T22:41:05.271Z,15.10
2023-01-23T22:43:33.136Z,14.70
2023-01-23T22:46:08.415Z,15.00
2023-01-23T22:48:36.530Z,15.10
2023-01-23T22:51:04.818Z,16.80
2023-01-23T22:53:31.970Z,17.80
2023-01-23T22:55:58.858Z,15.67
2023-01-23T22:58:25.917Z,16.60
2023-01-23T23:00:53.415Z,17.53
2023-01-23T23:03:21.225Z,15.40
2023-01-23T23:05:56.117Z,16.50
2023-01-23T23:08:22.791Z,18.53
2023-01-23T23:11:01.630Z,19.33
2023-01-23T23:13:29.834Z,16.87
2023-01-23T23:15:57.182Z,18.70
2023-01-23T23:18:23.921Z,18.90
2023-01-23T23:20:50.526Z,18.63
2023-01-23T23:23:19.577Z,18.33
2023-01-23T23:25:46.148Z,17.40
2023-01-23T23:28:12.699Z,18.13
2023-01-23T23:30:39.244Z,20.70
2023-01-23T23:33:05.818Z,16.80
2023-01-23T23:35:32.357Z,17.70
2023-01-23T23:37:58.916Z,19.93
2023-01-23T23:40:25.570Z,18.50
2023-01-23T23:42:52.125Z,19.63
2023-01-23T23:45:18.883Z,19.43
2023-01-23T23:47:45.517Z,18.50
2023-01-23T23:50:12.415Z,17.83
2023-01-23T23:52:39.040Z,20.27
2023-01-23T23:55:06.073Z,18.60
2023-01-23T23:57:32.643Z,20.80
